createdAt,value
2022-09-23T00:04:38.268Z,6.28
2022-09-23T00:09:38.163Z,6.21
2022-09-23T00:14:38.132Z,6.26
2022-09-23T00:19:38.077Z,6.25
2022-09-23T00:24:38.058Z,6.26
2022-09-23T00:29:37.939Z,6.32
2022-09-23T00:34:37.875Z,6.36
2022-09-23T00:39:37.797Z,6.22
2022-09-23T00:44:37.754Z,6.06
2022-09-23T00:49:37.672Z,6.03
2022-09-23T00:54:37.603Z,6.03
2022-09-23T00:59:37.526Z,5.93
2022-09-23T01:04:37.477Z,5.85
2022-09-23T01:09:37.402Z,5.88
2022-09-23T01:14:37.413Z,5.81
2022-09-23T01:19:37.489Z,5.85
2022-09-23T01:24:37.247Z,5.91
2022-09-23T01:29:37.186Z,5.86
2022-09-23T01:34:37.084Z,5.82
2022-09-23T01:39:37.027Z,5.67
2022-09-23T01:44:37.003Z,5.55
2022-09-23T01:49:36.912Z,5.55
2022-09-23T01:54:36.852Z,5.68
2022-09-23T01:59:36.808Z,5.75
2022-09-23T02:04:36.693Z,5.75
2022-09-23T02:09:36.675Z,5.68
2022-09-23T02:14:36.710Z,5.63
2022-09-23T02:19:36.496Z,5.59
2022-09-23T02:24:36.639Z,5.55
2022-09-23T02:29:36.661Z,5.52
2022-09-23T02:34:36.312Z,5.52
2022-09-23T02:39:36.240Z,5.41
2022-09-23T02:44:36.179Z,5.28
2022-09-23T02:49:36.099Z,5.22
2022-09-23T02:54:36.047Z,5.45
2022-09-23T02:59:36.007Z,5.22
2022-09-23T03:04:35.914Z,5.19
2022-09-23T03:09:35.814Z,5.14
2022-09-23T03:14:35.812Z,5.13
2022-09-23T03:19:35.705Z,5.09
2022-09-23T03:24:35.657Z,5.34
2022-09-23T03:29:35.754Z,5.28
2022-09-23T03:34:35.498Z,5.12
2022-09-23T03:39:35.473Z,5.20
2022-09-23T03:44:35.361Z,5.31
2022-09-23T03:49:35.294Z,5.43
2022-09-23T03:54:35.287Z,5.16
2022-09-23T03:59:35.199Z,5.10
2022-09-23T04:04:35.092Z,5.27
2022-09-23T04:09:35.023Z,5.34
2022-09-23T04:14:34.997Z,5.22
2022-09-23T04:19:34.891Z,5.09
2022-09-23T04:24:35.011Z,5.22
2022-09-23T04:29:34.809Z,4.95
2022-09-23T04:34:34.828Z,4.91
2022-09-23T04:39:34.697Z,5.04
2022-09-23T04:44:34.589Z,4.94
2022-09-23T04:49:34.510Z,4.98
2022-09-23T04:54:34.477Z,5.07
2022-09-23T04:59:34.344Z,5.07
2022-09-23T05:04:34.360Z,5.12
2022-09-23T05:09:34.699Z,5.23
2022-09-23T05:14:34.201Z,5.43
2022-09-23T05:19:34.149Z,5.28
2022-09-23T05:24:34.056Z,5.30
2022-09-23T05:29:34.213Z,5.40
2022-09-23T05:34:33.925Z,5.38
2022-09-23T05:39:33.993Z,5.46
2022-09-23T05:44:33.808Z,5.73
2022-09-23T05:49:58.073Z,5.95
2022-09-23T05:54:34.651Z,6.41
2022-09-23T05:59:33.700Z,6.61
2022-09-23T06:04:33.514Z,6.58
2022-09-23T06:09:36.511Z,6.71
2022-09-23T06:14:33.416Z,8.04
2022-09-23T06:19:33.331Z,9.15
2022-09-23T06:24:33.260Z,9.43
2022-09-23T06:29:33.238Z,9.88
2022-09-23T06:34:45.395Z,10.22
2022-09-23T06:39:34.095Z,10.78
2022-09-23T06:44:33.314Z,12.21
2022-09-23T06:49:32.931Z,12.45
2022-09-23T06:54:32.858Z,13.25
2022-09-23T06:59:32.817Z,14.04
2022-09-23T07:04:35.263Z,13.56
2022-09-23T07:09:32.714Z,13.84
2022-09-23T07:14:32.640Z,14.07
2022-09-23T07:19:32.562Z,15.27
2022-09-23T07:24:32.529Z,15.63
2022-09-23T07:29:43.625Z,16.38
2022-09-23T07:34:33.347Z,16.53
2022-09-23T07:39:32.332Z,17.14
2022-09-23T07:44:32.298Z,17.28
2022-09-23T07:49:32.349Z,17.15
2022-09-23T07:54:32.272Z,17.78
2022-09-23T07:59:32.117Z,17.73
2022-09-23T08:04:32.047Z,17.73
2022-09-23T08:09:31.891Z,17.50
2022-09-23T08:14:31.837Z,17.53
2022-09-23T08:19:31.784Z,17.47
2022-09-23T08:24:31.734Z,17.54
2022-09-23T08:29:31.653Z,18.64
2022-09-23T08:34:31.646Z,17.64
2022-09-23T08:39:31.497Z,17.84
2022-09-23T08:44:31.472Z,17.17
2022-09-23T08:49:31.399Z,18.06
2022-09-23T08:54:31.418Z,18.49
2022-09-23T08:59:31.312Z,18.27
2022-09-23T09:04:31.280Z,18.40
2022-09-23T09:09:31.162Z,18.77
2022-09-23T09:14:31.101Z,18.74
2022-09-23T09:19:30.983Z,18.84
2022-09-23T09:24:31.011Z,19.25
2022-09-23T09:29:35.418Z,18.37
2022-09-23T09:34:31.798Z,18.91
2022-09-23T09:39:30.798Z,19.36
2022-09-23T09:44:30.744Z,19.63
2022-09-23T09:49:30.643Z,19.66
2022-09-23T09:54:30.633Z,19.91
2022-09-23T09:59:30.415Z,20.02
2022-09-23T10:04:30.408Z,20.33
2022-09-23T10:09:30.388Z,20.20
2022-09-23T10:14:30.235Z,20.05
2022-09-23T10:19:30.300Z,19.50
2022-09-23T10:24:30.630Z,19.05
2022-09-23T10:29:30.384Z,19.15
2022-09-23T10:34:30.565Z,18.57
2022-09-23T10:39:30.342Z,19.18
2022-09-23T10:44:29.826Z,18.79
2022-09-23T10:49:29.756Z,18.82
2022-09-23T10:54:29.698Z,19.65
2022-09-23T10:59:29.638Z,19.86
2022-09-23T11:04:29.600Z,19.02
2022-09-23T11:09:29.547Z,17.89
2022-09-23T11:14:29.598Z,17.74
2022-09-23T11:19:29.750Z,19.01
2022-09-23T11:24:29.755Z,19.43
2022-09-23T11:29:29.638Z,19.06
2022-09-23T11:34:29.173Z,17.92
2022-09-23T11:39:29.108Z,18.42
2022-09-23T11:44:29.126Z,18.50
2022-09-23T11:49:30.427Z,18.43
2022-09-23T11:54:28.995Z,18.80
2022-09-23T11:59:38.661Z,19.15
2022-09-23T12:04:30.750Z,19.33
2022-09-23T12:09:47.590Z,19.72
2022-09-23T12:14:29.980Z,19.51
2022-09-23T12:19:28.667Z,19.55
2022-09-23T12:24:28.662Z,19.50
2022-09-23T12:34:28.585Z,19.57
2022-09-23T12:39:28.385Z,19.61
2022-09-23T12:44:28.273Z,19.58
2022-09-23T12:49:28.281Z,19.98
2022-09-23T12:54:28.128Z,19.83
2022-09-23T12:59:28.078Z,19.79
2022-09-23T13:04:28.020Z,19.35
2022-09-23T13:09:28.172Z,19.14
2022-09-23T13:14:27.922Z,19.08
2022-09-23T13:19:27.827Z,18.90
2022-09-23T13:24:27.860Z,18.99
2022-09-23T13:29:27.677Z,19.13
2022-09-23T13:34:27.616Z,19.11
2022-09-23T13:39:27.553Z,19.08
2022-09-23T13:44:27.474Z,19.11
2022-09-23T13:49:27.413Z,18.94
2022-09-23T13:54:27.343Z,19.10
2022-09-23T13:59:27.374Z,19.24
2022-09-23T14:04:27.261Z,19.10
2022-09-23T14:09:27.165Z,18.95
2022-09-23T14:14:27.133Z,18.68
2022-09-23T14:19:27.023Z,18.39
2022-09-23T14:24:26.965Z,18.17
2022-09-23T14:29:26.897Z,18.02
2022-09-23T14:34:26.875Z,17.95
2022-09-23T14:39:26.755Z,17.82
2022-09-23T14:44:26.699Z,17.81
2022-09-23T14:49:26.631Z,17.91
2022-09-23T14:54:26.551Z,17.94
2022-09-23T14:59:26.490Z,17.85
2022-09-23T15:04:26.485Z,17.82
2022-09-23T15:09:26.426Z,17.76
2022-09-23T15:14:37.730Z,17.63
2022-09-23T15:19:27.405Z,17.48
2022-09-23T15:24:26.157Z,17.32
2022-09-23T15:29:26.099Z,17.13
2022-09-23T15:34:26.050Z,16.80
2022-09-23T15:39:35.472Z,16.50
2022-09-23T15:44:26.931Z,16.30
2022-09-23T15:49:25.858Z,16.12
2022-09-23T15:54:25.759Z,15.89
2022-09-23T15:59:25.700Z,15.66
2022-09-23T16:04:25.655Z,15.41
2022-09-23T16:09:25.969Z,15.24
2022-09-23T16:14:25.591Z,15.20
2022-09-23T16:19:25.496Z,15.23
2022-09-23T16:24:28.147Z,15.30
2022-09-23T16:29:25.316Z,15.35
2022-09-23T16:34:25.247Z,15.35
2022-09-23T16:39:25.199Z,15.24
2022-09-23T16:44:25.112Z,14.87
2022-09-23T16:49:25.095Z,14.56
2022-09-23T16:54:24.984Z,14.32
2022-09-23T16:59:24.917Z,14.01
2022-09-23T17:04:24.846Z,13.80
2022-09-23T17:09:24.804Z,13.65
2022-09-23T17:14:24.721Z,13.56
2022-09-23T17:19:24.682Z,13.51
2022-09-23T17:24:24.582Z,13.33
2022-09-23T17:29:24.714Z,13.24
2022-09-23T17:34:24.479Z,13.22
2022-09-23T17:39:24.539Z,13.12
2022-09-23T17:44:24.471Z,13.03
2022-09-23T17:49:24.262Z,13.14
2022-09-23T17:54:24.216Z,13.11
2022-09-23T17:59:24.252Z,13.06
2022-09-23T18:04:24.088Z,12.88
2022-09-23T18:09:24.009Z,12.78
2022-09-23T18:14:24.043Z,12.74
2022-09-23T18:19:23.983Z,12.56
2022-09-23T18:24:32.807Z,12.49
2022-09-23T18:29:24.958Z,12.38
2022-09-23T18:34:23.788Z,12.24
2022-09-23T18:39:24.142Z,12.08
2022-09-23T18:44:23.710Z,12.06
2022-09-23T18:49:23.541Z,12.06
2022-09-23T18:54:23.644Z,11.89
2022-09-23T18:59:23.368Z,11.75
2022-09-23T19:04:23.294Z,11.61
2022-09-23T19:09:23.231Z,11.44
2022-09-23T19:14:23.308Z,11.28
2022-09-23T19:19:23.214Z,11.06
2022-09-23T19:24:23.138Z,10.96
2022-09-23T19:29:22.985Z,11.01
2022-09-23T19:34:22.976Z,10.92
2022-09-23T19:39:22.838Z,10.73
2022-09-23T19:44:22.732Z,10.60
2022-09-23T19:49:22.693Z,10.56
2022-09-23T19:54:22.631Z,10.44
2022-09-23T19:59:22.674Z,10.37
2022-09-23T20:04:22.521Z,10.34
2022-09-23T20:09:22.487Z,10.26
2022-09-23T20:14:22.480Z,10.18
2022-09-23T20:19:22.490Z,10.12
2022-09-23T20:24:22.253Z,10.04
2022-09-23T20:29:22.359Z,10.04
2022-09-23T20:34:22.126Z,10.10
2022-09-23T20:39:22.223Z,10.12
2022-09-23T20:44:21.993Z,10.04
2022-09-23T20:49:22.050Z,9.93
2022-09-23T20:54:21.993Z,10.01
2022-09-23T20:59:21.935Z,10.00
2022-09-23T21:04:21.830Z,9.96
2022-09-23T21:09:21.787Z,9.93
2022-09-23T21:14:21.739Z,9.82
2022-09-23T21:19:21.526Z,9.76
2022-09-23T21:29:22.447Z,9.67
2022-09-23T21:34:21.421Z,9.70
2022-09-23T21:39:21.240Z,9.67
2022-09-23T21:44:21.461Z,9.56
2022-09-23T21:49:21.217Z,9.63
2022-09-23T21:54:21.069Z,9.75
2022-09-23T21:59:20.951Z,9.86
2022-09-23T22:04:21.193Z,9.93
2022-09-23T22:09:21.117Z,9.99
2022-09-23T22:14:20.798Z,10.14
2022-09-23T22:19:20.690Z,10.24
2022-09-23T22:24:20.628Z,10.26
2022-09-23T22:29:20.582Z,10.24
2022-09-23T22:34:47.580Z,10.22
2022-09-23T22:39:21.429Z,10.25
2022-09-23T22:44:20.388Z,10.17
2022-09-23T22:49:20.498Z,10.18
2022-09-23T22:54:20.351Z,10.21
2022-09-23T22:59:20.159Z,10.24
2022-09-23T23:04:20.090Z,10.32
2022-09-23T23:09:20.049Z,10.26
2022-09-23T23:14:19.968Z,10.24
2022-09-23T23:19:19.914Z,10.21
2022-09-23T23:24:19.838Z,10.18
2022-09-23T23:29:19.783Z,10.19
2022-09-23T23:34:19.728Z,10.21
2022-09-23T23:39:19.638Z,10.14
2022-09-23T23:44:19.571Z,10.04
2022-09-23T23:49:19.556Z,10.00
2022-09-23T23:54:19.625Z,10.00
2022-09-23T23:59:19.390Z,10.03
